createdAt,value
2018-08-03T00:01:49.015Z,4.20
2018-08-03T00:04:17.372Z,4.13
2018-08-03T00:06:45.828Z,4.60
2018-08-03T00:09:14.176Z,4.53
2018-08-03T00:11:42.535Z,4.47
2018-08-03T00:14:10.843Z,4.93
2018-08-03T00:16:39.157Z,4.63
2018-08-03T00:19:07.548Z,4.70
2018-08-03T00:21:35.896Z,4.10
2018-08-03T00:24:04.234Z,4.50
2018-08-03T00:26:32.579Z,4.70
2018-08-03T00:29:01.014Z,4.50
2018-08-03T00:31:29.364Z,5.00
2018-08-03T00:33:57.804Z,4.40
2018-08-03T00:36:26.121Z,4.83
2018-08-03T00:38:54.500Z,4.40
2018-08-03T00:41:22.796Z,4.77
2018-08-03T00:43:51.232Z,4.57
2018-08-03T00:46:19.656Z,4.10
2018-08-03T00:48:48.016Z,5.10
2018-08-03T00:51:16.336Z,4.60
2018-08-03T00:53:44.776Z,4.53
2018-08-03T00:56:13.152Z,4.73
2018-08-03T00:58:41.552Z,4.60
2018-08-03T01:01:09.956Z,4.93
2018-08-03T01:03:38.306Z,5.00
2018-08-03T01:06:06.724Z,4.50
2018-08-03T01:08:35.085Z,4.90
2018-08-03T01:11:03.432Z,4.43
2018-08-03T01:13:31.828Z,4.77
2018-08-03T01:16:00.160Z,4.73
2018-08-03T01:18:28.480Z,4.33
2018-08-03T01:20:56.840Z,4.60
2018-08-03T01:23:25.184Z,4.80
2018-08-03T01:25:53.200Z,5.00
2018-08-03T01:28:21.621Z,5.00
2018-08-03T01:30:49.961Z,4.97
2018-08-03T01:33:18.319Z,4.63
2018-08-03T01:35:46.783Z,4.97
2018-08-03T01:38:15.101Z,5.00
2018-08-03T01:40:43.484Z,5.17
2018-08-03T01:43:11.857Z,5.00
2018-08-03T01:45:40.221Z,4.77
2018-08-03T01:48:08.548Z,5.10
2018-08-03T01:50:36.868Z,5.07
2018-08-03T01:53:05.153Z,4.57
2018-08-03T01:55:33.551Z,5.20
2018-08-03T01:58:01.930Z,4.80
2018-08-03T02:00:30.301Z,4.53
2018-08-03T02:02:58.660Z,5.20
2018-08-03T02:05:26.968Z,4.80
2018-08-03T02:07:55.281Z,5.20
2018-08-03T02:10:23.636Z,5.43
2018-08-03T02:12:51.985Z,5.40
2018-08-03T02:15:22.413Z,4.87
2018-08-03T02:17:50.849Z,5.20
2018-08-03T02:20:19.227Z,5.23
2018-08-03T02:22:47.612Z,5.20
2018-08-03T02:25:15.975Z,5.33
2018-08-03T02:27:44.294Z,5.17
2018-08-03T02:30:12.669Z,5.30
2018-08-03T02:32:40.984Z,5.33
2018-08-03T02:35:09.452Z,5.23
2018-08-03T02:37:37.781Z,5.07
2018-08-03T02:40:06.157Z,4.97
2018-08-03T02:42:34.624Z,5.13
2018-08-03T02:45:02.680Z,5.17
2018-08-03T02:47:31.017Z,5.00
2018-08-03T02:49:59.320Z,5.40
2018-08-03T02:52:27.669Z,5.20
2018-08-03T02:54:56.168Z,5.43
2018-08-03T02:57:24.516Z,5.27
2018-08-03T02:59:52.912Z,5.47
2018-08-03T03:02:21.248Z,5.60
2018-08-03T03:04:49.575Z,5.67
2018-08-03T03:07:18.000Z,5.80
2018-08-03T03:09:46.379Z,5.93
2018-08-03T03:12:14.429Z,5.80
2018-08-03T03:14:42.760Z,5.60
2018-08-03T03:17:11.148Z,5.93
2018-08-03T03:19:39.546Z,5.30
2018-08-03T03:22:07.924Z,5.77
2018-08-03T03:24:36.354Z,5.50
2018-08-03T03:27:04.712Z,5.70
2018-08-03T03:29:33.109Z,5.40
2018-08-03T03:32:01.532Z,5.80
2018-08-03T03:34:29.985Z,5.30
2018-08-03T03:36:58.274Z,5.93
2018-08-03T03:39:26.660Z,5.97
2018-08-03T03:41:54.985Z,5.60
2018-08-03T03:44:23.366Z,6.00
2018-08-03T03:46:51.716Z,5.83
2018-08-03T03:49:20.105Z,6.03
2018-08-03T03:51:48.514Z,6.00
2018-08-03T03:54:16.628Z,5.80
2018-08-03T03:56:45.037Z,5.37
2018-08-03T03:59:13.348Z,6.13
2018-08-03T04:01:41.657Z,5.80
2018-08-03T04:04:10.020Z,6.23
2018-08-03T04:06:38.324Z,5.87
2018-08-03T04:09:09.375Z,5.83
2018-08-03T04:11:37.784Z,5.90
2018-08-03T04:14:05.859Z,6.20
2018-08-03T04:16:34.476Z,6.20
2018-08-03T04:19:02.804Z,6.00
2018-08-03T04:21:31.421Z,6.13
2018-08-03T04:23:59.806Z,5.97
2018-08-03T04:26:28.197Z,5.97
2018-08-03T04:28:57.105Z,6.00
2018-08-03T04:31:25.476Z,6.13
2018-08-03T04:34:00.204Z,6.20
2018-08-03T04:36:29.342Z,6.10
2018-08-03T04:38:57.739Z,5.87
2018-08-03T04:41:26.060Z,5.93
2018-08-03T04:43:54.498Z,6.33
2018-08-03T04:46:22.915Z,6.60
2018-08-03T04:48:51.283Z,6.43
2018-08-03T04:51:19.670Z,5.70
2018-08-03T04:53:47.980Z,5.57
2018-08-03T04:56:16.375Z,6.43
2018-08-03T04:58:44.788Z,5.70
2018-08-03T05:01:13.132Z,6.00
2018-08-03T05:03:41.170Z,6.00
2018-08-03T05:06:09.563Z,6.20
2018-08-03T05:08:37.931Z,6.33
2018-08-03T05:11:06.325Z,6.30
2018-08-03T05:13:34.677Z,5.73
2018-08-03T05:16:03.089Z,6.10
2018-08-03T05:18:31.536Z,5.70
2018-08-03T05:20:59.919Z,6.07
2018-08-03T05:23:28.296Z,6.10
2018-08-03T05:25:56.719Z,5.63
2018-08-03T05:28:25.112Z,6.17
2018-08-03T05:30:53.612Z,5.40
2018-08-03T05:33:22.094Z,5.80
2018-08-03T05:35:50.635Z,5.73
2018-08-03T05:38:18.960Z,5.80
2018-08-03T05:40:47.516Z,5.80
2018-08-03T05:43:15.869Z,6.07
2018-08-03T05:45:44.172Z,5.53
2018-08-03T05:48:12.508Z,6.00
2018-08-03T05:50:40.869Z,6.07
2018-08-03T05:53:09.200Z,5.70
2018-08-03T05:55:37.572Z,5.73
2018-08-03T05:58:06.353Z,5.13
2018-08-03T06:00:34.676Z,5.40
2018-08-03T06:03:03.052Z,5.13
2018-08-03T06:05:31.348Z,5.60
2018-08-03T06:07:59.710Z,5.20
2018-08-03T06:10:33.613Z,4.93
2018-08-03T06:13:04.145Z,4.70
2018-08-03T06:15:32.480Z,5.43
2018-08-03T06:18:00.954Z,5.20
2018-08-03T06:20:29.337Z,4.80
2018-08-03T06:22:57.684Z,4.67
2018-08-03T06:25:26.044Z,4.90
2018-08-03T06:27:54.385Z,4.60
2018-08-03T06:30:22.751Z,4.90
2018-08-03T06:32:51.158Z,4.27
2018-08-03T06:35:19.624Z,4.40
2018-08-03T06:37:47.956Z,4.90
2018-08-03T06:40:16.423Z,4.27
2018-08-03T06:42:44.797Z,4.30
2018-08-03T06:45:13.076Z,4.83
2018-08-03T06:47:41.420Z,4.60
2018-08-03T06:50:09.740Z,4.30
2018-08-03T06:52:38.201Z,4.30
2018-08-03T06:55:06.636Z,4.10
2018-08-03T06:57:35.027Z,4.10
2018-08-03T07:00:03.473Z,4.47
2018-08-03T07:02:31.936Z,3.97
2018-08-03T07:05:00.272Z,4.40
2018-08-03T07:07:28.672Z,9.23
2018-08-03T07:09:57.068Z,4.97
2018-08-03T07:12:25.372Z,4.07
2018-08-03T07:14:53.859Z,3.90
2018-08-03T07:17:22.281Z,4.03
2018-08-03T07:19:51.085Z,3.90
2018-08-03T07:22:19.500Z,3.80
2018-08-03T07:24:47.905Z,3.67
2018-08-03T07:27:16.366Z,3.80
2018-08-03T07:29:44.785Z,3.90
2018-08-03T07:32:13.156Z,4.08
2018-08-03T07:34:41.515Z,3.80
2018-08-03T07:37:09.968Z,3.87
2018-08-03T07:39:38.332Z,3.95
2018-08-03T07:42:06.672Z,3.50
2018-08-03T07:44:35.113Z,4.42
2018-08-03T07:47:03.441Z,3.58
2018-08-03T07:49:31.788Z,3.77
2018-08-03T07:52:00.176Z,3.50
2018-08-03T07:54:28.521Z,3.80
2018-08-03T07:56:56.905Z,3.62
2018-08-03T07:59:25.269Z,3.80
2018-08-03T08:01:53.620Z,3.50
2018-08-03T08:04:21.993Z,3.90
2018-08-03T08:06:50.452Z,4.35
2018-08-03T08:09:18.821Z,3.60
2018-08-03T08:11:47.320Z,3.55
2018-08-03T08:14:15.665Z,3.90
2018-08-03T08:16:44.051Z,3.95
2018-08-03T08:19:12.450Z,3.50
2018-08-03T08:21:40.830Z,3.90
2018-08-03T08:24:09.236Z,3.98
2018-08-03T08:26:37.637Z,3.52
2018-08-03T08:29:06.116Z,4.05
2018-08-03T08:31:34.648Z,3.40
2018-08-03T08:34:03.146Z,3.58
2018-08-03T08:36:31.524Z,3.50
2018-08-03T08:38:59.888Z,3.50
2018-08-03T08:41:28.319Z,3.62
2018-08-03T08:43:58.143Z,3.80
2018-08-03T08:46:26.738Z,3.95
2018-08-03T08:48:55.110Z,3.70
2018-08-03T08:51:23.471Z,3.98
2018-08-03T08:53:51.876Z,3.80
2018-08-03T08:56:20.233Z,3.27
2018-08-03T08:58:48.538Z,3.65
2018-08-03T09:01:17.049Z,3.58
2018-08-03T09:03:45.447Z,3.65
2018-08-03T09:06:14.227Z,3.33
2018-08-03T09:08:42.668Z,3.92
2018-08-03T09:11:11.253Z,3.67
2018-08-03T09:13:39.568Z,3.60
2018-08-03T09:16:08.546Z,3.30
2018-08-03T09:18:37.115Z,3.25
2018-08-03T09:21:05.486Z,3.30
2018-08-03T09:23:34.088Z,3.12
2018-08-03T09:26:02.638Z,3.83
2018-08-03T09:28:31.074Z,3.60
2018-08-03T09:30:59.369Z,3.50
2018-08-03T09:33:27.916Z,3.17
2018-08-03T09:35:56.344Z,3.70
2018-08-03T09:38:24.682Z,3.40
2018-08-03T09:40:53.039Z,3.40
2018-08-03T09:43:21.406Z,4.12
2018-08-03T09:45:49.960Z,3.87
2018-08-03T09:48:18.306Z,3.95
2018-08-03T09:50:46.686Z,3.75
2018-08-03T09:53:15.048Z,3.62
2018-08-03T09:55:43.344Z,3.72
2018-08-03T09:58:11.717Z,3.52
2018-08-03T10:00:45.320Z,3.52
2018-08-03T10:03:13.745Z,3.50
2018-08-03T10:05:42.114Z,3.60
2018-08-03T10:08:10.448Z,3.67
2018-08-03T10:10:38.924Z,3.25
2018-08-03T10:13:07.456Z,3.58
2018-08-03T10:15:35.853Z,3.25
2018-08-03T10:18:04.144Z,3.65
2018-08-03T10:20:32.512Z,4.20
2018-08-03T10:23:00.884Z,3.02
2018-08-03T10:25:29.409Z,4.03
2018-08-03T10:27:57.752Z,5.25
2018-08-03T10:30:26.048Z,4.20
2018-08-03T10:32:54.394Z,3.75
2018-08-03T10:35:22.704Z,3.30
2018-08-03T10:37:51.184Z,3.70
2018-08-03T10:40:19.480Z,3.22
2018-08-03T10:42:47.878Z,3.08
2018-08-03T10:45:19.024Z,3.55
2018-08-03T10:47:47.421Z,3.27
2018-08-03T10:50:15.959Z,3.60
2018-08-03T10:52:44.636Z,4.08
2018-08-03T10:55:13.153Z,3.50
2018-08-03T10:57:41.532Z,4.17
2018-08-03T11:00:10.887Z,3.85
2018-08-03T11:02:39.352Z,4.03
2018-08-03T11:05:07.704Z,3.58
2018-08-03T11:07:36.032Z,3.75
2018-08-03T11:10:04.436Z,4.08
2018-08-03T11:12:32.765Z,3.67
2018-08-03T11:15:01.164Z,3.95
2018-08-03T11:17:29.448Z,4.55
2018-08-03T11:19:57.815Z,3.80
2018-08-03T11:22:26.134Z,3.80
2018-08-03T11:24:54.456Z,4.05
2018-08-03T11:27:23.269Z,3.65
2018-08-03T11:29:51.664Z,3.40
2018-08-03T11:32:19.964Z,4.03
2018-08-03T11:34:48.296Z,2.83
2018-08-03T11:37:16.891Z,3.60
2018-08-03T11:39:45.256Z,3.85
2018-08-03T11:42:13.598Z,3.50
2018-08-03T11:44:41.751Z,4.05
2018-08-03T11:47:10.077Z,3.70
2018-08-03T11:49:38.454Z,3.77
2018-08-03T11:52:07.119Z,3.67
2018-08-03T11:54:35.864Z,3.15
2018-08-03T11:57:04.232Z,3.40
2018-08-03T11:59:32.565Z,3.22
2018-08-03T12:02:00.990Z,3.75
2018-08-03T12:04:33.912Z,3.40
2018-08-03T12:07:02.304Z,3.47
2018-08-03T12:09:30.669Z,4.00
2018-08-03T12:11:59.065Z,3.58
2018-08-03T12:14:27.844Z,3.40
2018-08-03T12:16:56.316Z,3.60
2018-08-03T12:19:24.687Z,3.40
2018-08-03T12:21:53.009Z,3.62
2018-08-03T12:24:21.363Z,3.30
2018-08-03T12:26:49.700Z,3.00
2018-08-03T12:29:18.045Z,3.12
2018-08-03T12:31:46.372Z,3.45
2018-08-03T12:34:14.742Z,3.25
2018-08-03T12:36:43.203Z,3.00
2018-08-03T12:39:11.893Z,3.00
2018-08-03T12:41:40.329Z,3.00
2018-08-03T12:44:08.809Z,3.30
2018-08-03T12:46:37.160Z,3.10
2018-08-03T12:49:05.566Z,4.58
2018-08-03T12:51:33.997Z,5.53
2018-08-03T12:54:02.452Z,3.75
2018-08-03T12:56:30.847Z,3.30
2018-08-03T12:58:59.225Z,5.25
2018-08-03T13:01:27.640Z,3.50
2018-08-03T13:03:55.993Z,3.35
2018-08-03T13:06:24.390Z,3.45
2018-08-03T13:08:52.825Z,3.10
2018-08-03T13:11:21.379Z,2.90
2018-08-03T13:13:50.021Z,3.15
2018-08-03T13:16:18.537Z,2.90
2018-08-03T13:18:46.956Z,3.20
2018-08-03T13:21:26.785Z,2.80
2018-08-03T13:23:57.360Z,2.85
2018-08-03T13:26:26.457Z,3.67
2018-08-03T13:28:55.319Z,2.72
2018-08-03T13:31:24.949Z,2.70
2018-08-03T13:33:53.321Z,2.92
2018-08-03T13:36:22.945Z,2.90
2018-08-03T13:38:51.163Z,2.87
2018-08-03T13:41:19.473Z,2.80
2018-08-03T13:43:47.860Z,3.25
2018-08-03T13:46:16.884Z,2.95
2018-08-03T13:48:47.575Z,2.98
2018-08-03T13:51:16.916Z,3.37
2018-08-03T13:53:46.129Z,3.35
2018-08-03T13:56:15.288Z,3.17
2018-08-03T13:58:44.648Z,3.60
2018-08-03T14:01:24.468Z,3.20
2018-08-03T14:03:52.950Z,3.20
2018-08-03T14:06:21.456Z,3.20
2018-08-03T14:08:50.084Z,3.33
2018-08-03T14:11:18.989Z,2.85
2018-08-03T14:13:47.669Z,3.50
2018-08-03T14:16:16.139Z,3.42
2018-08-03T14:18:45.692Z,3.50
2018-08-03T14:21:14.140Z,3.75
2018-08-03T14:23:42.722Z,3.27
2018-08-03T14:26:11.059Z,3.58
2018-08-03T14:28:39.884Z,3.33
2018-08-03T14:31:08.306Z,3.40
2018-08-03T14:33:36.690Z,3.75
2018-08-03T14:36:05.046Z,3.92
2018-08-03T14:38:33.454Z,3.30
2018-08-03T14:41:01.815Z,3.40
2018-08-03T14:43:30.183Z,3.87
2018-08-03T14:45:58.664Z,3.80
2018-08-03T14:48:27.086Z,3.60
2018-08-03T14:50:55.412Z,3.70
2018-08-03T14:53:23.893Z,3.72
2018-08-03T14:55:52.292Z,3.70
2018-08-03T14:58:20.624Z,4.00
2018-08-03T15:00:49.028Z,4.20
2018-08-03T15:03:17.351Z,4.10
2018-08-03T15:05:46.100Z,4.35
2018-08-03T15:08:14.471Z,4.78
2018-08-03T15:10:42.797Z,4.37
2018-08-03T15:13:11.217Z,5.25
2018-08-03T15:15:39.586Z,4.67
2018-08-03T15:18:08.108Z,4.40
2018-08-03T15:20:36.473Z,5.53
2018-08-03T15:23:04.900Z,5.95
2018-08-03T15:25:33.272Z,5.00
2018-08-03T15:28:01.627Z,6.17
2018-08-03T15:30:29.988Z,8.38
2018-08-03T15:32:58.340Z,5.08
2018-08-03T15:35:26.699Z,5.78
2018-08-03T15:37:55.135Z,5.65
2018-08-03T15:40:23.457Z,5.80
2018-08-03T15:42:51.825Z,5.67
2018-08-03T15:45:20.144Z,5.28
2018-08-03T15:47:48.544Z,5.15
2018-08-03T15:50:16.891Z,5.78
2018-08-03T15:52:45.341Z,4.95
2018-08-03T15:55:13.729Z,5.45
2018-08-03T15:57:42.404Z,6.00
2018-08-03T16:00:10.859Z,5.60
2018-08-03T16:02:39.321Z,5.70
2018-08-03T16:05:08.500Z,6.08
2018-08-03T16:07:36.867Z,5.10
2018-08-03T16:10:05.924Z,5.15
2018-08-03T16:12:33.996Z,6.97
2018-08-03T16:15:02.384Z,4.95
2018-08-03T16:17:30.720Z,4.97
2018-08-03T16:19:59.042Z,5.20
2018-08-03T16:22:27.400Z,5.00
2018-08-03T16:24:55.698Z,5.03
2018-08-03T16:27:24.057Z,4.45
2018-08-03T16:29:52.412Z,4.47
2018-08-03T16:32:20.736Z,4.80
2018-08-03T16:34:49.139Z,4.72
2018-08-03T16:37:17.477Z,5.10
2018-08-03T16:39:45.860Z,4.40
2018-08-03T16:42:14.992Z,4.58
2018-08-03T16:44:43.280Z,4.40
2018-08-03T16:47:11.704Z,4.80
2018-08-03T16:49:40.717Z,5.30
2018-08-03T16:52:09.229Z,6.60
2018-08-03T16:54:37.623Z,4.67
2018-08-03T16:57:06.209Z,4.53
2018-08-03T16:59:34.524Z,4.67
2018-08-03T17:02:02.902Z,4.83
2018-08-03T17:04:31.256Z,5.50
2018-08-03T17:06:59.576Z,4.67
2018-08-03T17:09:27.950Z,4.37
2018-08-03T17:11:56.327Z,4.70
2018-08-03T17:14:24.939Z,4.58
2018-08-03T17:16:53.228Z,4.97
2018-08-03T17:19:21.628Z,4.45
2018-08-03T17:21:50.059Z,4.92
2018-08-03T17:24:18.431Z,4.20
2018-08-03T17:26:46.807Z,4.30
2018-08-03T17:29:15.188Z,4.53
2018-08-03T17:31:43.549Z,3.92
2018-08-03T17:34:11.946Z,4.10
2018-08-03T17:36:40.276Z,3.90
2018-08-03T17:39:09.992Z,4.03
2018-08-03T17:41:38.416Z,5.30
2018-08-03T17:44:06.548Z,4.03
2018-08-03T17:46:35.057Z,5.10
2018-08-03T17:49:03.512Z,4.10
2018-08-03T17:51:31.909Z,4.08
2018-08-03T17:54:00.563Z,4.03
2018-08-03T17:56:29.024Z,3.55
2018-08-03T17:58:57.372Z,4.15
2018-08-03T18:01:25.788Z,3.70
2018-08-03T18:03:54.193Z,3.85
2018-08-03T18:06:22.672Z,3.92
2018-08-03T18:08:51.120Z,4.20
2018-08-03T18:11:19.468Z,4.33
2018-08-03T18:13:48.640Z,3.70
2018-08-03T18:16:16.982Z,3.52
2018-08-03T18:18:45.514Z,3.30
2018-08-03T18:21:14.468Z,4.00
2018-08-03T18:23:42.848Z,3.50
2018-08-03T18:26:11.402Z,4.03
2018-08-03T18:28:39.851Z,3.83
2018-08-03T18:31:08.208Z,3.05
2018-08-03T18:33:36.528Z,3.35
2018-08-03T18:36:04.950Z,3.30
2018-08-03T18:38:33.370Z,3.65
2018-08-03T18:41:01.734Z,3.70
2018-08-03T18:43:30.133Z,5.20
2018-08-03T18:45:58.182Z,4.58
2018-08-03T18:48:26.583Z,3.85
2018-08-03T18:50:55.021Z,4.67
2018-08-03T18:53:23.414Z,4.60
2018-08-03T18:55:52.141Z,4.55
2018-08-03T18:58:21.356Z,4.20
2018-08-03T19:00:49.753Z,4.85
2018-08-03T19:03:18.171Z,4.42
2018-08-03T19:05:46.312Z,4.05
2018-08-03T19:08:14.776Z,4.03
2018-08-03T19:10:43.112Z,4.30
2018-08-03T19:13:11.544Z,6.53
2018-08-03T19:15:39.906Z,5.70
2018-08-03T19:18:08.236Z,6.70
2018-08-03T19:20:36.631Z,5.92
2018-08-03T19:23:05.121Z,4.12
2018-08-03T19:25:33.499Z,4.00
2018-08-03T19:28:01.921Z,3.58
2018-08-03T19:30:30.660Z,3.55
2018-08-03T19:32:58.944Z,3.98
2018-08-03T19:35:27.457Z,4.10
2018-08-03T19:37:55.884Z,4.12
2018-08-03T19:40:24.245Z,3.60
2018-08-03T19:42:52.624Z,4.78
2018-08-03T19:45:20.989Z,5.55
2018-08-03T19:47:49.373Z,4.15
2018-08-03T19:50:17.716Z,4.67
2018-08-03T19:52:46.057Z,3.95
2018-08-03T19:55:14.417Z,4.03
2018-08-03T19:57:42.836Z,3.90
2018-08-03T20:00:12.342Z,4.73
2018-08-03T20:02:40.732Z,4.23
2018-08-03T20:05:09.726Z,3.50
2018-08-03T20:07:37.979Z,4.07
2018-08-03T20:10:06.741Z,3.87
2018-08-03T20:12:35.139Z,3.73
2018-08-03T20:15:03.566Z,4.50
2018-08-03T20:17:31.993Z,4.17
2018-08-03T20:20:00.392Z,4.00
2018-08-03T20:22:28.712Z,3.97
2018-08-03T20:24:57.234Z,4.00
2018-08-03T20:27:25.604Z,3.77
2018-08-03T20:29:53.928Z,4.20
2018-08-03T20:32:22.393Z,4.00
2018-08-03T20:34:50.932Z,3.70
2018-08-03T20:37:19.297Z,3.67
2018-08-03T20:39:47.688Z,3.20
2018-08-03T20:42:16.127Z,3.20
2018-08-03T20:44:44.549Z,3.40
2018-08-03T20:47:12.931Z,2.83
2018-08-03T20:49:41.368Z,3.17
2018-08-03T20:52:09.701Z,2.80
2018-08-03T20:54:38.209Z,3.03
2018-08-03T20:57:06.564Z,2.70
2018-08-03T20:59:35.017Z,4.03
2018-08-03T21:02:03.341Z,23.30
2018-08-03T21:04:31.781Z,14.23
2018-08-03T21:07:00.173Z,7.60
2018-08-03T21:09:28.568Z,6.33
2018-08-03T21:11:56.940Z,4.90
2018-08-03T21:14:25.307Z,3.50
2018-08-03T21:16:53.634Z,7.27
2018-08-03T21:19:21.926Z,5.10
2018-08-03T21:21:50.260Z,4.47
2018-08-03T21:24:18.637Z,3.17
2018-08-03T21:26:47.340Z,2.30
2018-08-03T21:29:15.717Z,2.60
2018-08-03T21:31:43.998Z,2.20
2018-08-03T21:34:13.052Z,2.30
2018-08-03T21:36:41.417Z,2.23
2018-08-03T21:39:11.079Z,2.10
2018-08-03T21:41:39.450Z,2.43
2018-08-03T21:44:07.837Z,2.07
2018-08-03T21:46:36.367Z,2.30
2018-08-03T21:49:04.929Z,2.30
2018-08-03T21:51:33.915Z,2.07
2018-08-03T21:54:02.323Z,2.80
2018-08-03T21:56:30.624Z,3.20
2018-08-03T21:58:59.132Z,2.30
2018-08-03T22:01:27.476Z,2.23
2018-08-03T22:03:55.799Z,2.40
2018-08-03T22:06:24.136Z,2.50
2018-08-03T22:08:52.559Z,2.90
2018-08-03T22:11:20.881Z,3.30
2018-08-03T22:13:49.212Z,2.40
2018-08-03T22:16:17.588Z,2.53
2018-08-03T22:18:45.873Z,2.03
2018-08-03T22:21:14.185Z,2.27
2018-08-03T22:23:42.636Z,2.03
2018-08-03T22:26:10.976Z,2.03
2018-08-03T22:28:39.369Z,1.90
2018-08-03T22:31:07.749Z,2.20
2018-08-03T22:33:36.102Z,2.10
2018-08-03T22:36:04.475Z,1.90
2018-08-03T22:38:32.898Z,1.87
2018-08-03T22:41:01.279Z,2.00
2018-08-03T22:43:29.753Z,1.93
2018-08-03T22:45:58.423Z,2.10
2018-08-03T22:48:26.787Z,2.10
2018-08-03T22:50:54.885Z,2.20
2018-08-03T22:53:23.288Z,2.20
2018-08-03T22:55:51.640Z,2.20
2018-08-03T22:58:19.972Z,2.10
2018-08-03T23:00:48.477Z,2.13
2018-08-03T23:03:16.960Z,2.00
2018-08-03T23:05:45.308Z,1.93
2018-08-03T23:08:13.764Z,2.17
2018-08-03T23:10:42.116Z,1.87
2018-08-03T23:13:10.494Z,2.23
2018-08-03T23:15:38.928Z,2.10
2018-08-03T23:18:07.233Z,2.10
2018-08-03T23:20:35.612Z,2.13
2018-08-03T23:23:03.983Z,2.27
2018-08-03T23:25:38.939Z,2.20
2018-08-03T23:28:07.273Z,2.03
2018-08-03T23:30:35.600Z,2.20
2018-08-03T23:33:03.952Z,2.20
2018-08-03T23:35:32.320Z,2.40
2018-08-03T23:38:00.644Z,2.37
2018-08-03T23:40:29.036Z,2.20
2018-08-03T23:42:57.391Z,2.23
2018-08-03T23:45:25.692Z,2.10
2018-08-03T23:47:54.050Z,2.20
2018-08-03T23:50:22.383Z,2.10
2018-08-03T23:52:50.736Z,2.10
2018-08-03T23:55:19.108Z,2.37
2018-08-03T23:57:47.576Z,2.27
